This is the latest recevied weather packets stored in our database for station/object SQ9PDE-13. If no packets are shown the sender has not sent any weather packets the latest 10 day(s).
| Time | Temp. | Humidity | Pressure | Rain* | Wind** | Luminosity | Snow |
|---|---|---|---|---|---|---|---|
| 1788064930 | 13.33° C | 85% | 1019.7 hPa | - | - | - | - |
| 1788064629 | 13.89° C | 83% | 1019.7 hPa | - | - | - | - |
| 1788064328 | 12.78° C | 87% | 1019.9 hPa | - | - | - | - |
| 1788064028 | 12.78° C | 87% | 1019.9 hPa | - | - | - | - |
| 1788063727 | 12.22° C | 89% | 1019.9 hPa | - | - | - | - |
| 1788063473 | 11.67° C | 90% | 1020 hPa | - | - | - | - |
| 1788063427 | 11.67° C | 90% | 1020 hPa | - | - | - | - |
| 1788063126 | 11.67° C | 90% | 1020 hPa | - | - | - | - |
| 1788062886 | 11.67° C | 90% | 1019.9 hPa | - | - | - | - |
| 1788062826 | 11.67° C | 90% | 1019.9 hPa | - | - | - | - |
| 1788062629 | 11.67° C | 90% | 1019.9 hPa | - | - | - | - |
| 1788062525 | 11.67° C | 90% | 1019.9 hPa | - | - | - | - |
| 1788062225 | 11.67° C | 90% | 1019.9 hPa | - | - | - | - |
| 1788061924 | 11.67° C | 90% | 1019.9 hPa | - | - | - | - |
| 1788061688 | 11.67° C | 90% | 1019.9 hPa | - | - | - | - |
| 1788061624 | 11.67° C | 90% | 1019.9 hPa | - | - | - | - |
| 1788061323 | 11.67° C | 90% | 1019.9 hPa | - | - | - | - |
| 1788061126 | 11.67° C | 89% | 1019.9 hPa | - | - | - | - |
| 1788061023 | 11.67° C | 89% | 1019.9 hPa | - | - | - | - |
| 1788060722 | 11.11° C | 89% | 1019.9 hPa | - | - | - | - |
| 1788060493 | 11.67° C | 88% | 1019.9 hPa | - | - | - | - |
| 1788060422 | 11.67° C | 88% | 1019.9 hPa | - | - | - | - |
| 1788060121 | 11.67° C | 88% | 1019.9 hPa | - | - | - | - |
| 1788059821 | 11.11° C | 89% | 1019.9 hPa | - | - | - | - |
| 1788059520 | 11.11° C | 89% | 1019.9 hPa | - | - | - | - |
* Rain since midnight (hover to see other rain measurements)
** Current wind speed in m/s (hover to see current wind gust speed)